ENRA/MQN METAR and TAF weather

Enter ICAO airport designator
Station Type Date Time Source
ENRA METAR 2020/01/21 15:20 UTC NOAA

ENRA 211520Z 24009KT 9999 -SHSN SCT025CB M00/M03 Q0998 RESHSN


Station Type Date Time Source
ENRA Decoded METAR 2020/01/21 15:20 UTC NOAA

Mo I Rana / Rossvoll, Norway (ENRA) 66-22N 014-18E 70M
Jan 21, 2020 - 10:20 AM EST / 2020.01.21 1520 UTC
Wind: from the WSW (240 degrees) at 10 MPH (9 KT):0
Visibility: greater than 7 mile(s):0
Sky conditions: partly cloudy
Weather: light snow showers; Cumulonimbus clouds observed
Temperature: 32 F (0 C)
Windchill: 23 F (-5 C):1
Dew Point: 26 F (-3 C)
Relative Humidity: 80%
Pressure (altimeter): 29.47 in. Hg (0998 hPa)
ob: ENRA 211520Z 24009KT 9999 -SHSN SCT025CB M00/M03 Q0998 RESHSN
cycle: 15

Station Type Date Time Source
ENRA TAF UTC NOAA

Error!

Example: see airport list